createdAt,value
2017-11-06T00:01:00.043Z,97943.91
2017-11-06T00:02:03.683Z,97931.64
2017-11-06T00:03:07.680Z,97946.84
2017-11-06T00:04:11.541Z,97946.44
2017-11-06T00:05:15.165Z,97936.83
2017-11-06T00:06:18.937Z,97935.06
2017-11-06T00:07:22.568Z,97935.04
2017-11-06T00:08:26.200Z,97952.81
2017-11-06T00:09:30.116Z,97948.53
2017-11-06T00:10:33.752Z,97951.06
2017-11-06T00:11:37.631Z,97933.80
2017-11-06T00:12:41.289Z,97950.31
2017-11-06T00:13:44.994Z,97942.87
2017-11-06T00:14:48.680Z,97951.02
2017-11-06T00:15:52.542Z,97946.95
2017-11-06T00:16:56.075Z,97948.73
2017-11-06T00:17:59.679Z,97943.92
2017-11-06T00:19:03.239Z,97958.02
2017-11-06T00:20:06.780Z,97951.48
2017-11-06T00:21:10.340Z,97957.87
2017-11-06T00:22:13.883Z,97965.66
2017-11-06T00:23:17.481Z,97953.02
2017-11-06T00:24:21.053Z,97930.42
2017-11-06T00:25:24.617Z,97954.39
2017-11-06T00:26:28.158Z,97948.94
2017-11-06T00:27:31.691Z,97944.63
2017-11-06T00:28:35.490Z,97944.60
2017-11-06T00:29:39.096Z,97947.83
2017-11-06T00:30:42.723Z,97951.23
2017-11-06T00:31:46.325Z,97947.70
2017-11-06T00:32:49.934Z,97938.22
2017-11-06T00:33:53.534Z,97953.34
2017-11-06T00:34:57.461Z,97962.98
2017-11-06T00:36:01.100Z,97961.43
2017-11-06T00:37:04.740Z,97927.66
2017-11-06T00:38:08.339Z,97930.77
2017-11-06T00:39:12.040Z,97951.58
2017-11-06T00:40:15.663Z,97958.42
2017-11-06T00:41:19.676Z,97941.63
2017-11-06T00:42:23.261Z,97936.86
2017-11-06T00:43:26.986Z,97939.88
2017-11-06T00:44:30.633Z,97898.32
2017-11-06T00:45:34.355Z,97957.36
2017-11-06T00:46:38.060Z,97960.45
2017-11-06T00:47:41.902Z,97959.95
2017-11-06T00:48:45.570Z,97927.72
2017-11-06T00:49:49.103Z,97957.67
2017-11-06T00:50:52.857Z,97962.42
2017-11-06T00:51:56.496Z,97960.13
2017-11-06T00:53:00.208Z,97961.66
2017-11-06T00:54:04.130Z,97964.05
2017-11-06T00:55:07.770Z,97971.85
2017-11-06T00:56:11.395Z,97950.44
2017-11-06T00:57:14.988Z,97956.66
2017-11-06T00:58:18.583Z,97993.39
2017-11-06T00:59:22.251Z,97976.59
2017-11-06T01:00:26.170Z,97945.28
2017-11-06T01:01:29.772Z,97979.72
2017-11-06T01:02:33.427Z,97975.67
2017-11-06T01:03:37.053Z,97987.33
2017-11-06T01:04:40.696Z,97969.81
2017-11-06T01:05:44.286Z,97981.55
2017-11-06T01:06:48.200Z,97973.06
2017-11-06T01:07:51.812Z,97970.89
2017-11-06T01:08:55.519Z,97973.78
2017-11-06T01:09:59.056Z,97990.87
2017-11-06T01:11:02.601Z,97986.53
2017-11-06T01:12:06.150Z,97990.92
2017-11-06T01:13:09.973Z,97995.72
2017-11-06T01:14:13.531Z,98003.87
2017-11-06T01:15:17.188Z,97996.06
2017-11-06T01:16:20.782Z,97978.03
2017-11-06T01:17:24.256Z,97996.91
2017-11-06T01:18:27.729Z,97998.04
2017-11-06T01:19:31.533Z,97990.25
2017-11-06T01:20:35.117Z,97990.75
2017-11-06T01:21:39.953Z,98000.52
2017-11-06T01:22:43.494Z,97979.27
2017-11-06T01:23:47.766Z,97968.98
2017-11-06T01:24:51.306Z,97984.84
2017-11-06T01:25:56.022Z,97992.73
2017-11-06T01:26:59.636Z,97992.98
2017-11-06T01:28:03.260Z,97989.92
2017-11-06T01:29:06.811Z,97996.23
2017-11-06T01:30:10.357Z,97999.95
2017-11-06T01:31:13.889Z,97995.94
2017-11-06T01:32:17.701Z,97999.92
2017-11-06T01:33:21.296Z,97993.77
2017-11-06T01:34:25.259Z,97996.59
2017-11-06T01:35:28.911Z,97983.98
2017-11-06T01:36:32.561Z,97994.75
2017-11-06T01:37:36.161Z,97993.10
2017-11-06T01:38:39.995Z,97981.84
2017-11-06T01:39:43.611Z,97989.58
2017-11-06T01:40:47.216Z,97990.94
2017-11-06T01:41:50.841Z,97993.92
2017-11-06T01:42:54.473Z,97995.23
2017-11-06T01:43:58.066Z,97996.53
2017-11-06T01:45:01.981Z,98017.09
2017-11-06T01:46:05.609Z,97987.53
2017-11-06T01:47:09.239Z,97996.67
2017-11-06T01:48:12.845Z,97984.09
2017-11-06T01:49:16.506Z,98002.64
2017-11-06T01:50:20.262Z,98008.25
2017-11-06T01:51:24.179Z,98006.96
2017-11-06T01:52:27.809Z,97997.11
2017-11-06T01:53:31.416Z,98005.89
2017-11-06T01:54:35.087Z,98004.15
2017-11-06T01:55:38.749Z,98007.73
2017-11-06T01:56:42.349Z,98006.84
2017-11-06T01:57:49.095Z,98007.97
2017-11-06T01:58:52.727Z,98008.47
2017-11-06T01:59:56.354Z,98013.54
2017-11-06T02:01:00.613Z,98014.81
2017-11-06T02:02:04.243Z,98003.06
2017-11-06T02:03:07.967Z,98001.21
2017-11-06T02:04:11.910Z,98013.75
2017-11-06T02:05:15.495Z,97985.56
2017-11-06T02:06:19.104Z,98016.28
2017-11-06T02:07:22.715Z,97992.36
2017-11-06T02:08:26.338Z,98026.81
2017-11-06T02:09:29.991Z,98022.95
2017-11-06T02:10:33.914Z,98031.95
2017-11-06T02:11:37.536Z,98020.05
2017-11-06T02:12:41.132Z,98025.42
2017-11-06T02:13:44.811Z,98015.67
2017-11-06T02:14:48.348Z,98014.42
2017-11-06T02:15:51.864Z,98032.77
2017-11-06T02:16:56.580Z,98033.64
2017-11-06T02:18:00.816Z,98039.95
2017-11-06T02:19:04.687Z,98018.69
2017-11-06T02:20:08.273Z,97999.52
2017-11-06T02:21:11.845Z,98038.86
2017-11-06T02:22:15.376Z,98036.02
2017-11-06T02:23:19.367Z,98000.15
2017-11-06T02:24:22.929Z,98032.91
2017-11-06T02:25:26.464Z,98033.67
2017-11-06T02:26:30.042Z,98018.27
2017-11-06T02:27:33.684Z,98052.72
2017-11-06T02:28:37.308Z,98058.91
2017-11-06T02:29:41.228Z,98049.02
2017-11-06T02:30:46.008Z,98062.45
2017-11-06T02:31:49.614Z,98062.42
2017-11-06T02:32:53.449Z,98061.98
2017-11-06T02:33:57.043Z,98061.50
2017-11-06T02:35:00.741Z,98063.91
2017-11-06T02:36:05.458Z,98055.45
2017-11-06T02:37:09.090Z,98071.60
2017-11-06T02:38:12.824Z,98064.30
2017-11-06T02:39:16.482Z,98078.45
2017-11-06T02:40:20.107Z,98075.80
2017-11-06T02:41:23.752Z,98080.78
2017-11-06T02:42:27.704Z,98080.27
2017-11-06T02:43:31.301Z,98072.06
2017-11-06T02:44:34.995Z,98089.91
2017-11-06T02:45:38.677Z,98084.91
2017-11-06T02:46:42.326Z,98089.69
2017-11-06T02:47:46.063Z,98091.34
2017-11-06T02:48:49.998Z,98093.09
2017-11-06T02:49:53.925Z,98097.06
2017-11-06T02:50:57.435Z,98079.16
2017-11-06T02:52:01.093Z,98083.12
2017-11-06T02:53:05.070Z,98084.06
2017-11-06T02:54:08.705Z,98091.47
2017-11-06T02:55:12.587Z,98083.80
2017-11-06T02:56:16.206Z,98100.14
2017-11-06T02:57:19.878Z,98102.86
2017-11-06T02:58:23.509Z,98072.05
2017-11-06T02:59:27.275Z,98091.20
2017-11-06T03:00:30.897Z,98093.31
2017-11-06T03:01:34.866Z,98085.69
2017-11-06T03:02:38.509Z,98087.45
2017-11-06T03:03:42.193Z,98098.56
2017-11-06T03:04:45.859Z,98096.92
2017-11-06T03:05:49.544Z,98083.62
2017-11-06T03:06:53.995Z,98087.88
2017-11-06T03:07:57.894Z,98105.19
2017-11-06T03:09:01.567Z,98077.53
2017-11-06T03:10:05.249Z,98106.29
2017-11-06T03:11:08.905Z,98096.00
2017-11-06T03:12:12.690Z,98055.63
2017-11-06T03:13:16.383Z,98106.53
2017-11-06T03:14:20.299Z,98112.88
2017-11-06T03:15:24.058Z,98112.09
2017-11-06T03:16:27.717Z,98087.33
2017-11-06T03:17:31.387Z,98120.53
2017-11-06T03:18:35.096Z,98123.77
2017-11-06T03:19:38.805Z,98124.19
2017-11-06T03:20:42.782Z,98130.02
2017-11-06T03:21:46.436Z,98128.90
2017-11-06T03:22:50.079Z,98135.09
2017-11-06T03:23:53.712Z,98142.34
2017-11-06T03:24:57.379Z,98133.16
2017-11-06T03:26:10.729Z,98133.13
2017-11-06T03:27:14.291Z,98135.22
2017-11-06T03:28:17.846Z,98099.34
2017-11-06T03:29:21.412Z,98122.45
2017-11-06T03:30:25.330Z,98148.37
2017-11-06T03:31:28.903Z,98134.63
2017-11-06T03:32:32.449Z,98134.54
2017-11-06T03:33:36.026Z,98122.59
2017-11-06T03:34:39.598Z,98139.94
2017-11-06T03:35:43.186Z,98141.22
2017-11-06T03:36:46.772Z,98147.70
2017-11-06T03:37:50.631Z,98127.86
2017-11-06T03:38:54.222Z,98144.82
2017-11-06T03:39:57.752Z,98147.41
2017-11-06T03:41:01.324Z,98147.53
2017-11-06T03:42:04.878Z,98135.30
2017-11-06T03:43:08.475Z,98144.98
2017-11-06T03:44:12.617Z,98151.52
2017-11-06T03:45:16.369Z,98152.30
2017-11-06T03:46:20.027Z,98159.88
2017-11-06T03:47:23.656Z,98140.02
2017-11-06T03:48:27.984Z,98157.86
2017-11-06T03:49:31.693Z,98159.16
2017-11-06T03:50:35.656Z,98149.19
2017-11-06T03:51:39.287Z,98165.96
2017-11-06T03:52:42.933Z,98169.97
2017-11-06T03:53:46.612Z,98169.23
2017-11-06T03:54:50.256Z,98149.69
2017-11-06T03:55:53.892Z,98171.83
2017-11-06T03:56:57.806Z,98151.25
2017-11-06T03:58:01.477Z,98168.19
2017-11-06T03:59:05.107Z,98167.14
2017-11-06T04:00:08.788Z,98164.89
2017-11-06T04:01:12.457Z,98167.16
2017-11-06T04:02:16.111Z,98161.61
2017-11-06T04:03:20.023Z,98166.55
2017-11-06T04:04:23.641Z,98165.75
2017-11-06T04:05:27.252Z,98148.70
2017-11-06T04:06:30.921Z,98163.77
2017-11-06T04:07:34.596Z,98165.97
2017-11-06T04:08:38.244Z,98164.86
2017-11-06T04:09:42.724Z,98147.41
2017-11-06T04:10:46.354Z,98172.03
2017-11-06T04:11:50.073Z,98160.38
2017-11-06T04:12:53.720Z,98167.03
2017-11-06T04:13:57.368Z,98167.17
2017-11-06T04:15:01.027Z,98167.25
2017-11-06T04:16:05.096Z,98130.66
2017-11-06T04:17:08.771Z,98153.35
2017-11-06T04:18:12.422Z,98165.09
2017-11-06T04:19:16.086Z,98180.27
2017-11-06T04:20:19.720Z,98140.98
2017-11-06T04:21:23.586Z,98168.09
2017-11-06T04:22:27.479Z,98170.09
2017-11-06T04:23:32.493Z,98154.74
2017-11-06T04:24:36.061Z,98176.11
2017-11-06T04:25:39.673Z,98175.34
2017-11-06T04:26:43.242Z,98180.55
2017-11-06T04:27:47.866Z,98161.95
2017-11-06T04:28:51.937Z,98176.72
2017-11-06T04:29:56.235Z,98161.77
2017-11-06T04:31:00.006Z,98178.66
2017-11-06T04:32:03.578Z,98182.16
2017-11-06T04:33:07.189Z,98182.64
2017-11-06T04:34:10.982Z,98167.36
2017-11-06T04:35:14.852Z,98170.91
2017-11-06T04:36:18.435Z,98168.98
2017-11-06T04:37:22.769Z,98189.61
2017-11-06T04:38:26.406Z,98194.27
2017-11-06T04:39:30.000Z,98189.33
2017-11-06T04:40:34.190Z,98187.73
2017-11-06T04:41:38.078Z,98187.65
2017-11-06T04:42:41.654Z,98194.87
2017-11-06T04:43:45.313Z,98187.34
2017-11-06T04:44:48.904Z,98167.42
2017-11-06T04:45:52.487Z,98200.83
2017-11-06T04:46:56.126Z,98176.23
2017-11-06T04:48:00.023Z,98184.56
2017-11-06T04:49:03.712Z,98200.85
2017-11-06T04:50:07.516Z,98200.30
2017-11-06T04:51:11.345Z,98198.85
2017-11-06T04:52:15.029Z,98200.31
2017-11-06T04:53:18.665Z,98184.73
2017-11-06T04:54:22.605Z,98195.99
2017-11-06T04:55:26.288Z,98179.34
2017-11-06T04:56:29.963Z,98195.79
2017-11-06T04:57:33.529Z,98201.41
2017-11-06T04:58:37.374Z,98193.51
2017-11-06T04:59:41.226Z,98163.98
2017-11-06T05:00:45.192Z,98199.73
2017-11-06T05:01:48.834Z,98193.78
2017-11-06T05:02:52.501Z,98195.77
2017-11-06T05:03:56.142Z,98197.11
2017-11-06T05:04:59.804Z,98204.01
2017-11-06T05:06:03.470Z,98206.32
2017-11-06T05:07:06.970Z,98200.59
2017-11-06T05:08:10.452Z,98238.17
2017-11-06T05:09:13.949Z,98201.28
2017-11-06T05:10:17.438Z,98207.63
2017-11-06T05:11:20.932Z,98205.53
2017-11-06T05:12:24.459Z,98206.47
2017-11-06T05:13:28.245Z,98224.03
2017-11-06T05:14:31.729Z,98203.47
2017-11-06T05:15:36.150Z,98210.03
2017-11-06T05:16:39.659Z,98208.73
2017-11-06T05:17:43.317Z,98211.22
2017-11-06T05:18:46.807Z,98204.41
2017-11-06T05:19:50.590Z,98207.91
2017-11-06T05:20:54.057Z,98219.83
2017-11-06T05:21:57.586Z,98222.02
2017-11-06T05:23:01.220Z,98189.18
2017-11-06T05:24:04.889Z,98201.72
2017-11-06T05:25:08.470Z,98224.83
2017-11-06T05:26:12.352Z,98231.18
2017-11-06T05:27:15.986Z,98203.33
2017-11-06T05:28:20.220Z,98229.17
2017-11-06T05:29:23.806Z,98220.11
2017-11-06T05:30:27.588Z,98236.11
2017-11-06T05:31:31.246Z,98239.29
2017-11-06T05:32:35.200Z,98238.24
2017-11-06T05:33:39.801Z,98223.88
2017-11-06T05:34:43.421Z,98220.62
2017-11-06T05:35:47.032Z,98246.13
2017-11-06T05:36:50.659Z,98216.15
2017-11-06T05:37:54.320Z,98228.45
2017-11-06T05:38:58.353Z,98247.52
2017-11-06T05:40:01.983Z,98215.22
2017-11-06T07:11:23.754Z,98290.88
2017-11-06T07:12:27.354Z,98372.18
2017-11-06T07:13:30.949Z,98374.17
2017-11-06T07:14:34.724Z,98360.75
2017-11-06T07:15:38.740Z,98374.78
2017-11-06T07:16:42.910Z,98373.41
2017-11-06T07:17:46.627Z,98372.83
2017-11-06T07:18:50.315Z,98374.59
2017-11-06T07:19:54.004Z,98381.38
2017-11-06T07:20:59.219Z,98381.38
2017-11-06T07:22:02.908Z,98255.64
2017-11-06T07:23:07.447Z,98324.33
2017-11-06T07:24:11.868Z,98381.25
2017-11-06T07:25:15.606Z,98326.44
2017-11-06T07:26:19.319Z,98363.08
2017-11-06T07:27:23.044Z,98365.79
2017-11-06T07:28:26.798Z,98376.99
2017-11-06T07:29:30.793Z,98366.23
2017-11-06T07:30:34.563Z,98366.22
2017-11-06T07:31:38.370Z,98362.45
2017-11-06T07:32:42.053Z,98366.62
2017-11-06T07:33:45.729Z,98368.33
2017-11-06T07:34:49.397Z,98378.97
2017-11-06T07:35:53.479Z,98379.92
2017-11-06T07:36:57.229Z,98335.78
2017-11-06T07:38:00.930Z,98385.63
2017-11-06T07:39:04.949Z,98391.53
2017-11-06T07:40:08.681Z,98382.05
2017-11-06T07:41:12.398Z,98387.59
2017-11-06T07:42:16.114Z,98376.13
2017-11-06T07:43:19.795Z,98388.44
2017-11-06T07:44:23.509Z,98360.13
2017-11-06T07:45:27.257Z,98388.56
2017-11-06T07:46:30.993Z,98385.91
2017-11-06T07:47:34.949Z,98387.19
2017-11-06T07:48:38.638Z,98391.86
2017-11-06T07:49:42.562Z,98386.77
2017-11-06T07:50:46.520Z,98391.41
2017-11-06T07:51:50.212Z,98373.48
2017-11-06T07:52:53.945Z,98265.66
2017-11-06T07:53:58.154Z,98387.41
2017-11-06T07:55:01.827Z,98391.20
2017-11-06T07:56:05.656Z,98388.31
2017-11-06T07:57:09.173Z,98391.59
2017-11-06T07:58:12.961Z,98386.73
2017-11-06T07:59:16.892Z,98390.63
2017-11-06T08:00:20.637Z,98396.58
2017-11-06T08:01:24.313Z,98396.09
2017-11-06T08:02:28.383Z,98390.20
2017-11-06T08:03:32.077Z,98403.61
2017-11-06T08:04:35.861Z,98397.74
2017-11-06T08:05:39.859Z,98398.11
2017-11-06T08:06:43.515Z,98371.41
2017-11-06T08:07:47.212Z,98428.52
2017-11-06T08:08:50.862Z,98419.64
2017-11-06T08:09:55.376Z,98402.40
2017-11-06T08:10:59.061Z,98399.80
2017-11-06T08:12:03.145Z,98411.21
2017-11-06T08:13:06.844Z,98417.84
2017-11-06T08:14:10.552Z,98420.49
2017-11-06T08:15:14.245Z,98422.41
2017-11-06T08:16:18.005Z,98381.65
2017-11-06T08:17:21.695Z,98423.50
2017-11-06T08:18:25.800Z,98293.39
2017-11-06T08:19:29.479Z,98428.66
2017-11-06T08:20:33.235Z,98417.56
2017-11-06T08:21:37.909Z,98430.02
2017-11-06T08:22:41.625Z,98433.10
2017-11-06T08:23:45.336Z,98433.13
2017-11-06T08:24:49.486Z,98432.16
2017-11-06T08:25:53.320Z,98432.52
2017-11-06T08:26:57.146Z,98435.95
2017-11-06T08:28:00.819Z,98429.64
2017-11-06T08:29:05.469Z,98369.45
2017-11-06T08:30:10.788Z,98433.17
2017-11-06T08:31:14.472Z,98438.25
2017-11-06T08:32:18.284Z,98437.05
2017-11-06T08:33:21.979Z,98419.53
2017-11-06T08:34:25.836Z,98441.13
2017-11-06T08:35:29.727Z,98359.30
2017-11-06T08:36:33.882Z,98440.00
2017-11-06T08:37:37.605Z,98369.03
2017-11-06T08:38:41.272Z,98385.25
2017-11-06T08:39:44.991Z,98427.27
2017-11-06T08:40:48.789Z,98440.88
2017-11-06T08:41:52.705Z,98430.43
2017-11-06T08:42:56.716Z,98451.78
2017-11-06T08:44:00.563Z,98390.58
2017-11-06T08:45:04.293Z,98449.95
2017-11-06T08:46:08.119Z,98444.97
2017-11-06T08:47:11.706Z,98452.95
2017-11-06T08:48:15.239Z,98423.80
2017-11-06T08:49:19.033Z,98438.47
2017-11-06T08:50:22.723Z,98458.55
2017-11-06T08:51:26.877Z,98421.72
2017-11-06T08:52:30.454Z,98457.30
2017-11-06T08:53:34.222Z,98438.89
2017-11-06T08:54:37.951Z,98449.88
2017-11-06T08:55:41.941Z,98451.81
2017-11-06T08:56:46.434Z,98465.56
2017-11-06T08:57:56.603Z,98461.86
2017-11-06T08:59:05.805Z,98427.83
2017-11-06T09:00:09.879Z,98464.89
2017-11-06T09:01:13.623Z,98462.28
2017-11-06T09:02:17.936Z,98301.33
2017-11-06T09:03:21.574Z,98494.50
2017-11-06T09:04:25.371Z,98468.08
2017-11-06T09:05:29.124Z,98440.39
2017-11-06T09:06:32.855Z,98465.28
2017-11-06T09:07:37.126Z,98465.08
2017-11-06T09:08:40.949Z,98468.65
2017-11-06T09:09:45.385Z,98468.02
2017-11-06T09:10:49.289Z,98476.47
2017-11-06T09:11:53.106Z,98460.28
2017-11-06T09:12:57.009Z,98475.50
2017-11-06T09:14:01.062Z,98475.51
2017-11-06T09:15:04.917Z,98461.63
2017-11-06T09:16:08.641Z,98464.99
2017-11-06T09:17:12.352Z,98463.65
2017-11-06T09:18:16.128Z,98474.84
2017-11-06T09:19:19.913Z,98484.16
2017-11-06T09:20:24.004Z,98471.66
2017-11-06T09:21:27.815Z,98465.81
2017-11-06T09:22:31.575Z,98487.48
2017-11-06T09:23:35.375Z,98438.91
2017-11-06T09:24:39.216Z,98492.56
2017-11-06T09:25:43.007Z,98492.73
2017-11-06T09:26:47.081Z,98469.63
2017-11-06T09:27:50.838Z,98495.56
2017-11-06T09:28:54.911Z,98491.34
2017-11-06T09:29:58.704Z,98489.28
2017-11-06T09:31:03.272Z,98491.35
2017-11-06T09:32:07.077Z,98485.82
2017-11-06T09:33:11.022Z,98485.05
2017-11-06T09:34:14.821Z,98495.98
2017-11-06T09:35:18.661Z,98491.98
2017-11-06T09:36:22.392Z,98485.34
2017-11-06T09:37:26.178Z,98488.38
2017-11-06T09:38:29.913Z,98490.02
2017-11-06T09:39:34.313Z,98504.77
2017-11-06T09:40:38.172Z,98500.05
2017-11-06T09:41:42.001Z,98517.53
2017-11-06T09:42:45.848Z,98440.73
2017-11-06T09:43:50.111Z,98509.69
2017-11-06T09:44:53.921Z,98511.97
2017-11-06T09:45:58.241Z,98423.64
2017-11-06T09:47:02.133Z,98446.38
2017-11-06T09:48:05.913Z,98516.18
2017-11-06T09:49:09.799Z,98517.35
2017-11-06T09:50:13.622Z,98522.20
2017-11-06T09:51:17.841Z,98407.67
2017-11-06T09:52:22.152Z,98521.16
2017-11-06T09:53:26.008Z,98523.82
2017-11-06T09:54:29.783Z,98525.25
2017-11-06T09:55:33.603Z,98530.45
2017-11-06T09:56:37.449Z,98525.59
2017-11-06T09:57:42.344Z,98526.09
2017-11-06T09:58:46.520Z,98433.01
2017-11-06T09:59:50.311Z,98530.81
2017-11-06T10:00:54.116Z,98531.55
2017-11-06T10:01:57.932Z,98532.89
2017-11-06T10:03:01.765Z,98499.68
2017-11-06T10:04:06.126Z,98474.41
2017-11-06T10:05:10.136Z,98534.73
2017-11-06T10:06:14.954Z,98489.14
2017-11-06T10:07:18.689Z,98471.13
2017-11-06T10:08:22.540Z,98536.20
2017-11-06T10:09:26.235Z,98536.52
2017-11-06T10:10:29.968Z,98536.63
2017-11-06T10:11:34.035Z,98536.41
2017-11-06T10:12:37.845Z,98539.48
2017-11-06T10:13:41.601Z,98543.80
2017-11-06T10:14:45.350Z,98551.34
2017-11-06T10:15:49.051Z,98534.27
2017-11-06T10:16:52.866Z,98550.55
2017-11-06T10:17:57.136Z,98539.58
2017-11-06T10:19:01.512Z,98485.05
2017-11-06T10:20:09.732Z,98536.10
2017-11-06T10:21:13.719Z,98536.95
2017-11-06T10:22:17.578Z,98458.83
2017-11-06T10:23:21.688Z,98553.39
2017-11-06T10:24:25.684Z,98529.95
2017-11-06T10:25:29.509Z,98531.63
2017-11-06T10:26:33.671Z,98566.97
2017-11-06T10:27:37.681Z,98538.25
2017-11-06T10:28:41.440Z,98460.52
2017-11-06T10:29:45.236Z,98521.20
2017-11-06T10:30:49.335Z,98521.81
2017-11-06T10:31:53.041Z,98533.33
2017-11-06T10:32:56.726Z,98568.63
2017-11-06T10:34:00.547Z,98530.09
2017-11-06T10:35:04.336Z,98461.59
2017-11-06T10:36:08.308Z,98497.34
2017-11-06T10:37:12.453Z,98478.89
2017-11-06T10:38:16.235Z,98534.59
2017-11-06T10:39:20.066Z,98511.09
2017-11-06T10:40:23.956Z,98519.19
2017-11-06T10:41:27.781Z,98534.77
2017-11-06T10:42:31.617Z,98536.02
2017-11-06T10:43:35.685Z,98532.84
2017-11-06T10:44:39.554Z,98532.16
2017-11-06T10:45:43.970Z,98560.98
2017-11-06T10:46:51.067Z,98535.59
2017-11-06T10:47:55.241Z,98512.10
2017-11-06T10:49:00.713Z,98505.22
2017-11-06T10:50:05.744Z,98479.23
2017-11-06T10:51:09.787Z,98532.13
2017-11-06T10:52:13.547Z,98517.31
2017-11-06T10:53:17.406Z,98511.38
2017-11-06T10:54:21.851Z,98395.25
2017-11-06T10:55:25.445Z,98531.53
2017-11-06T10:56:29.906Z,98312.10
2017-11-06T10:57:34.906Z,98509.80
2017-11-06T10:58:38.553Z,98529.05
2017-11-06T10:59:42.186Z,98386.36
2017-11-06T11:00:46.522Z,98521.02
2017-11-06T11:01:51.377Z,98539.53
2017-11-06T11:02:55.564Z,98541.94
2017-11-06T11:03:59.235Z,98528.25
2017-11-06T11:05:04.335Z,98533.63
2017-11-06T11:06:08.698Z,98530.22
2017-11-06T11:07:12.529Z,98477.29
2017-11-06T11:08:16.590Z,98533.16
2017-11-06T11:09:20.886Z,98471.63
2017-11-06T11:10:24.811Z,98538.86
2017-11-06T11:11:28.581Z,98544.31
2017-11-06T11:12:32.384Z,98526.76
2017-11-06T11:13:36.177Z,98525.44
2017-11-06T11:14:39.939Z,98522.81
2017-11-06T11:15:44.573Z,98512.66
2017-11-06T11:16:48.544Z,98538.33
2017-11-06T11:17:52.708Z,98455.87
2017-11-06T11:18:58.062Z,98541.17
2017-11-06T11:20:02.488Z,98489.39
2017-11-06T11:21:06.879Z,98540.73
2017-11-06T11:22:12.471Z,98522.78
2017-11-06T11:23:16.226Z,98539.59
2017-11-06T11:24:19.950Z,98514.91
2017-11-06T11:25:24.980Z,98512.67
2017-11-06T11:26:29.444Z,98427.48
2017-11-06T11:27:33.208Z,98466.55
2017-11-06T11:28:36.915Z,98528.89
2017-11-06T11:29:40.669Z,98542.63
2017-11-06T11:30:45.124Z,98487.00
2017-11-06T11:31:49.072Z,98453.02
2017-11-06T11:32:53.181Z,98368.73
2017-11-06T11:33:57.831Z,98434.57
2017-11-06T11:35:01.966Z,98538.34
2017-11-06T11:36:06.714Z,98543.50
2017-11-06T11:37:10.500Z,98328.41
2017-11-06T11:38:14.237Z,98544.37
2017-11-06T11:39:17.938Z,98546.61
2017-11-06T11:40:22.113Z,98476.34
2017-11-06T11:41:26.561Z,98552.77
2017-11-06T11:42:30.640Z,98558.23
2017-11-06T11:43:34.307Z,98540.61
2017-11-06T11:44:38.866Z,98557.89
2017-11-06T11:45:43.358Z,98527.95
2017-11-06T11:46:51.542Z,98555.95
2017-11-06T11:47:55.545Z,98553.86
2017-11-06T11:48:59.325Z,98538.77
2017-11-06T11:50:03.038Z,98461.77
2017-11-06T11:51:06.786Z,98493.17
2017-11-06T11:52:10.742Z,98567.47
2017-11-06T11:53:14.294Z,98565.75
2017-11-06T11:54:18.153Z,98571.41
2017-11-06T11:55:21.894Z,98567.25
2017-11-06T11:56:25.629Z,98568.12
2017-11-06T11:57:29.269Z,98573.02
2017-11-06T11:58:33.416Z,98565.34
2017-11-06T11:59:37.119Z,98567.11
2017-11-06T12:00:41.606Z,98528.94
2017-11-06T12:01:45.372Z,98547.03
2017-11-06T12:02:50.197Z,98576.59
2017-11-06T12:03:54.287Z,98603.02
2017-11-06T12:04:59.297Z,98573.77
2017-11-06T12:06:07.600Z,98583.37
2017-11-06T12:07:11.278Z,98574.38
2017-11-06T12:08:15.277Z,98571.86
2017-11-06T12:09:20.274Z,98577.50
2017-11-06T12:10:25.610Z,98571.84
2017-11-06T12:11:30.925Z,98575.35
2017-11-06T12:12:34.629Z,98576.72
2017-11-06T12:13:38.439Z,98581.25
2017-11-06T12:14:42.257Z,98328.84
2017-11-06T12:15:46.091Z,98580.65
2017-11-06T12:16:50.306Z,98581.05
2017-11-06T12:17:55.190Z,98602.63
2017-11-06T12:19:00.997Z,98554.94
2017-11-06T12:20:06.817Z,98587.98
2017-11-06T12:21:10.523Z,98546.64
2017-11-06T12:22:14.204Z,98569.23
2017-11-06T12:23:17.930Z,98445.91
2017-11-06T12:24:22.911Z,98542.88
2017-11-06T12:25:27.261Z,98568.66
2017-11-06T12:26:30.980Z,98553.14
2017-11-06T12:27:35.090Z,98440.79
2017-11-06T12:28:39.899Z,98521.08
2017-11-06T12:29:44.168Z,98473.52
2017-11-06T12:30:47.821Z,98535.93
2017-11-06T12:31:51.501Z,98578.14
2017-11-06T12:32:55.898Z,98515.76
2017-11-06T12:34:01.391Z,98561.49
2017-11-06T12:35:05.176Z,98553.28
2017-11-06T12:36:09.294Z,98575.09
2017-11-06T12:37:13.232Z,98575.56
2017-11-06T12:38:16.916Z,98565.57
2017-11-06T12:39:21.005Z,98575.19
2017-11-06T12:40:24.918Z,98579.98
2017-11-06T12:41:28.634Z,98510.81
2017-11-06T12:42:32.732Z,98575.30
2017-11-06T12:43:36.509Z,98445.87
2017-11-06T12:44:40.892Z,98582.58
2017-11-06T12:45:45.274Z,98578.26
2017-11-06T12:46:49.124Z,98577.78
2017-11-06T12:47:52.834Z,98580.86
2017-11-06T12:48:57.169Z,98551.24
2017-11-06T12:50:00.962Z,98526.35
2017-11-06T12:51:04.718Z,98573.02
2017-11-06T12:52:08.458Z,98580.47
2017-11-06T12:53:13.950Z,98565.20
2017-11-06T12:54:17.741Z,98589.95
2017-11-06T12:55:21.778Z,98559.03
2017-11-06T12:56:25.556Z,98544.56
2017-11-06T12:57:29.380Z,98585.95
2017-11-06T12:58:33.262Z,98583.39
2017-11-06T12:59:37.066Z,98590.17
2017-11-06T13:00:41.341Z,98595.43
2017-11-06T13:01:45.569Z,98589.80
2017-11-06T13:02:49.396Z,98591.91
2017-11-06T13:03:53.224Z,98593.34
2017-11-06T13:04:57.265Z,98591.18
2017-11-06T13:06:01.291Z,98594.78
2017-11-06T13:07:05.255Z,98593.17
2017-11-06T13:08:14.495Z,98592.48
2017-11-06T13:09:18.452Z,98593.89
2017-11-06T13:10:22.665Z,98598.37
2017-11-06T13:11:28.353Z,98600.44
2017-11-06T13:12:32.691Z,98598.67
2017-11-06T13:13:36.494Z,98603.55
2017-11-06T13:14:40.666Z,98573.64
2017-11-06T13:15:44.537Z,98599.55
2017-11-06T13:16:48.412Z,98600.91
2017-11-06T13:17:52.396Z,98599.20
2017-11-06T13:18:56.500Z,98621.67
2017-11-06T13:20:00.349Z,98602.19
2017-11-06T13:21:04.620Z,98600.48
2017-11-06T13:22:08.498Z,98605.64
2017-11-06T13:23:12.390Z,98611.69
2017-11-06T13:24:16.433Z,98380.50
2017-11-06T13:25:21.148Z,98576.16
2017-11-06T13:26:25.805Z,98607.63
2017-11-06T13:27:31.060Z,98611.20
2017-11-06T13:28:34.860Z,98587.81
2017-11-06T13:29:38.548Z,98605.32
2017-11-06T13:30:42.266Z,98589.59
2017-11-06T13:31:47.132Z,98615.70
2017-11-06T13:32:51.112Z,98389.14
2017-11-06T13:33:58.070Z,98619.15
2017-11-06T13:35:02.209Z,98618.40
2017-11-06T13:36:07.234Z,98612.93
2017-11-06T13:37:11.685Z,98616.02
2017-11-06T13:38:16.216Z,98587.62
2017-11-06T13:39:21.292Z,98606.78
2017-11-06T13:40:25.156Z,98620.83
2017-11-06T13:41:29.342Z,98620.52
2017-11-06T13:42:33.173Z,98583.97
2017-11-06T13:43:37.062Z,98442.76
2017-11-06T13:44:43.530Z,98619.87
2017-11-06T13:45:47.981Z,98598.87
2017-11-06T13:46:51.774Z,98594.44
2017-11-06T13:47:55.824Z,98621.41
2017-11-06T13:48:59.805Z,98584.83
2017-11-06T13:50:03.705Z,98626.26
2017-11-06T13:51:07.589Z,98626.14
2017-11-06T13:52:11.556Z,98626.72
2017-11-06T13:53:15.655Z,98628.72
2017-11-06T13:54:19.736Z,98629.16
2017-11-06T13:55:23.462Z,98630.87
2017-11-06T13:56:27.406Z,98631.58
2017-11-06T13:57:31.276Z,98666.27
2017-11-06T13:58:36.379Z,98631.09
2017-11-06T13:59:40.510Z,98633.91
2017-11-06T14:00:44.350Z,98638.52
2017-11-06T14:01:47.996Z,98643.16